createdAt,value
2023-03-21T00:00:41.897Z,1.60
2023-03-21T00:03:09.900Z,1.73
2023-03-21T00:05:41.841Z,1.50
2023-03-21T00:08:10.511Z,1.60
2023-03-21T00:10:43.023Z,2.17
2023-03-21T00:13:13.986Z,1.50
2023-03-21T00:16:06.156Z,1.30
2023-03-21T00:18:42.010Z,1.13
2023-03-21T00:21:40.593Z,1.60
2023-03-21T00:24:03.393Z,1.23
2023-03-21T00:26:31.757Z,1.80
2023-03-21T00:29:01.171Z,1.63
2023-03-21T00:31:29.274Z,1.50
2023-03-21T00:33:57.818Z,1.77
2023-03-21T00:36:26.745Z,1.43
2023-03-21T00:38:55.592Z,2.03
2023-03-21T00:41:41.047Z,1.70
2023-03-21T00:44:13.571Z,1.20
2023-03-21T00:46:51.557Z,2.77
2023-03-21T00:49:25.920Z,1.63
2023-03-21T00:51:55.202Z,1.80
2023-03-21T00:54:25.980Z,1.50
2023-03-21T00:56:54.368Z,1.93
2023-03-21T00:59:23.711Z,1.30
2023-03-21T01:01:53.602Z,1.63
2023-03-21T01:04:26.622Z,1.10
2023-03-21T01:06:55.798Z,1.47
2023-03-21T01:09:25.955Z,2.00
2023-03-21T01:11:54.742Z,1.30
2023-03-21T01:14:24.844Z,1.50
2023-03-21T01:16:53.917Z,1.47
2023-03-21T01:19:37.954Z,1.50
2023-03-21T01:22:09.055Z,1.97
2023-03-21T01:24:40.594Z,1.93
2023-03-21T01:27:14.785Z,1.30
2023-03-21T01:29:44.106Z,2.00
2023-03-21T01:32:12.431Z,1.50
2023-03-21T01:34:40.530Z,1.60
2023-03-21T01:37:09.322Z,2.23
2023-03-21T01:39:37.296Z,2.30
2023-03-21T01:42:05.716Z,1.40
2023-03-21T01:44:33.683Z,2.10
2023-03-21T01:47:11.146Z,1.70
2023-03-21T01:49:45.933Z,2.60
2023-03-21T01:52:33.434Z,2.00
2023-03-21T01:55:05.112Z,1.57
2023-03-21T01:57:47.258Z,2.00
2023-03-21T02:00:22.669Z,1.50
2023-03-21T02:02:58.136Z,2.00
2023-03-21T02:05:37.424Z,1.93
2023-03-21T02:08:05.785Z,2.00
2023-03-21T02:10:34.563Z,2.23
2023-03-21T02:13:09.643Z,2.00
2023-03-21T02:15:39.454Z,1.80
2023-03-21T02:18:18.545Z,1.60
2023-03-21T02:21:17.765Z,1.50
2023-03-21T02:24:23.313Z,1.40
2023-03-21T02:27:04.391Z,1.83
2023-03-21T02:30:14.924Z,2.20
2023-03-21T02:33:24.187Z,1.77
2023-03-21T02:36:19.196Z,1.70
2023-03-21T02:38:56.993Z,1.40
2023-03-21T02:41:40.141Z,1.90
2023-03-21T02:44:17.346Z,1.10
2023-03-21T02:46:59.674Z,1.60
2023-03-21T02:49:40.167Z,1.53
2023-03-21T02:52:17.113Z,2.03
2023-03-21T02:54:53.303Z,1.20
2023-03-21T02:57:24.046Z,1.50
2023-03-21T03:00:02.343Z,2.03
2023-03-21T03:02:33.105Z,2.20
2023-03-21T03:05:02.868Z,1.40
2023-03-21T03:07:45.942Z,1.47
2023-03-21T03:10:48.337Z,2.00
2023-03-21T03:13:36.794Z,1.83
2023-03-21T03:16:18.501Z,1.70
2023-03-21T03:18:54.148Z,1.43
2023-03-21T03:21:28.756Z,1.37
2023-03-21T03:24:01.207Z,1.10
2023-03-21T03:26:36.620Z,1.70
2023-03-21T03:29:08.654Z,1.57
2023-03-21T03:31:41.298Z,1.73
2023-03-21T03:34:14.014Z,1.77
2023-03-21T03:36:47.516Z,1.57
2023-03-21T03:39:16.990Z,1.73
2023-03-21T03:42:10.231Z,1.43
2023-03-21T03:44:42.577Z,1.67
2023-03-21T03:47:26.245Z,1.60
2023-03-21T03:50:04.440Z,1.70
2023-03-21T03:52:42.069Z,1.40
2023-03-21T03:55:18.892Z,1.60
2023-03-21T03:57:48.657Z,1.97
2023-03-21T04:00:18.761Z,2.03
2023-03-21T04:02:47.011Z,2.07
2023-03-21T04:05:15.372Z,1.43
2023-03-21T04:07:43.359Z,1.60
2023-03-21T04:10:12.542Z,1.83
2023-03-21T04:12:40.517Z,1.20
2023-03-21T04:15:11.915Z,2.40
2023-03-21T04:17:40.480Z,1.97
2023-03-21T04:20:13.039Z,2.07
2023-03-21T04:22:44.680Z,1.47
2023-03-21T04:25:18.983Z,1.50
2023-03-21T04:27:52.411Z,1.40
2023-03-21T04:30:21.722Z,1.70
2023-03-21T04:32:56.832Z,1.40
2023-03-21T04:35:25.817Z,1.53
2023-03-21T04:37:53.856Z,1.70
2023-03-21T04:40:21.879Z,1.30
2023-03-21T04:42:50.384Z,1.60
2023-03-21T04:45:18.761Z,1.30
2023-03-21T04:47:48.180Z,1.30
2023-03-21T04:50:16.791Z,1.70
2023-03-21T04:52:44.743Z,1.43
2023-03-21T04:55:12.743Z,1.50
2023-03-21T04:57:40.925Z,1.17
2023-03-21T05:00:11.377Z,1.83
2023-03-21T05:02:39.924Z,1.53
2023-03-21T05:05:12.103Z,1.43
2023-03-21T05:07:40.854Z,1.20
2023-03-21T05:10:12.772Z,1.63
2023-03-21T05:12:41.233Z,1.50
2023-03-21T05:15:10.731Z,1.20
2023-03-21T05:17:38.782Z,1.87
2023-03-21T05:20:11.259Z,1.70
2023-03-21T05:22:41.244Z,1.37
2023-03-21T05:25:11.699Z,2.03
2023-03-21T05:27:45.880Z,1.40
2023-03-21T05:30:17.445Z,1.43
2023-03-21T05:32:45.479Z,1.80
2023-03-21T05:35:14.958Z,1.30
2023-03-21T05:37:42.945Z,1.53
2023-03-21T05:40:12.586Z,1.30
2023-03-21T05:42:40.633Z,1.33
2023-03-21T05:45:09.389Z,1.30
2023-03-21T05:47:37.396Z,1.70
2023-03-21T05:50:06.782Z,1.30
2023-03-21T05:52:36.142Z,2.10
2023-03-21T05:55:04.896Z,2.17
2023-03-21T05:57:35.078Z,1.60
2023-03-21T06:00:03.651Z,1.30
2023-03-21T06:02:31.652Z,1.87
2023-03-21T06:04:59.648Z,1.60
2023-03-21T06:07:27.619Z,1.40
2023-03-21T06:09:57.004Z,1.50
2023-03-21T06:12:25.179Z,1.60
2023-03-21T06:14:53.188Z,2.00
2023-03-21T06:17:21.181Z,1.17
2023-03-21T06:19:49.193Z,1.60
2023-03-21T06:22:17.167Z,1.30
2023-03-21T06:24:45.332Z,1.20
2023-03-21T06:27:14.807Z,1.50
2023-03-21T06:29:42.843Z,1.30
2023-03-21T06:32:10.829Z,1.60
2023-03-21T06:34:39.529Z,1.60
2023-03-21T06:37:08.555Z,1.87
2023-03-21T06:39:36.685Z,1.70
2023-03-21T06:42:04.901Z,1.70
2023-03-21T06:44:34.264Z,1.83
2023-03-21T06:47:02.477Z,2.67
2023-03-21T06:49:30.874Z,3.47
2023-03-21T06:51:58.998Z,3.83
2023-03-21T06:54:27.092Z,4.57
2023-03-21T06:56:55.820Z,4.47
2023-03-21T06:59:23.888Z,3.60
2023-03-21T07:01:53.296Z,3.77
2023-03-21T07:04:21.301Z,3.07
2023-03-21T07:06:49.280Z,3.13
2023-03-21T07:09:24.351Z,3.57
2023-03-21T07:11:53.914Z,3.60
2023-03-21T07:14:23.810Z,3.10
2023-03-21T07:16:53.149Z,3.07
2023-03-21T07:19:21.144Z,3.70
2023-03-21T07:21:49.128Z,2.80
2023-03-21T07:24:17.196Z,2.80
2023-03-21T07:26:45.258Z,2.70
2023-03-21T07:29:13.282Z,2.90
2023-03-21T07:31:41.564Z,2.87
2023-03-21T07:34:10.981Z,2.80
2023-03-21T07:36:39.009Z,2.73
2023-03-21T07:39:07.520Z,2.40
2023-03-21T07:41:35.681Z,3.13
2023-03-21T07:44:03.724Z,2.73
2023-03-21T07:46:32.073Z,2.67
2023-03-21T07:49:00.387Z,2.90
2023-03-21T07:51:29.734Z,3.00
2023-03-21T07:53:57.734Z,3.60
2023-03-21T07:56:25.705Z,3.10
2023-03-21T07:58:53.659Z,3.60
2023-03-21T08:01:22.131Z,3.60
2023-03-21T08:03:51.308Z,4.20
2023-03-21T08:06:19.329Z,3.43
2023-03-21T08:08:48.703Z,4.30
2023-03-21T08:11:18.027Z,3.70
2023-03-21T08:13:46.012Z,3.30
2023-03-21T08:16:14.142Z,3.30
2023-03-21T08:18:42.695Z,3.33
2023-03-21T08:21:11.202Z,3.40
2023-03-21T08:23:39.232Z,4.20
2023-03-21T08:26:09.249Z,3.60
2023-03-21T08:28:39.295Z,3.20
2023-03-21T08:31:10.154Z,3.50
2023-03-21T08:33:38.440Z,3.13
2023-03-21T08:36:11.087Z,3.43
2023-03-21T08:38:39.495Z,3.17
2023-03-21T08:41:09.035Z,4.30
2023-03-21T08:43:36.989Z,4.40
2023-03-21T08:46:05.294Z,3.60
2023-03-21T08:48:33.410Z,2.70
2023-03-21T08:51:01.641Z,3.87
2023-03-21T08:53:29.728Z,3.70
2023-03-21T08:55:57.751Z,4.00
2023-03-21T08:58:27.650Z,3.20
2023-03-21T09:00:56.392Z,3.63
2023-03-21T09:03:24.586Z,5.63
2023-03-21T09:05:54.969Z,3.30
2023-03-21T09:08:23.471Z,3.33
2023-03-21T09:10:54.537Z,3.37
2023-03-21T09:13:22.720Z,2.90
2023-03-21T09:15:53.017Z,4.03
2023-03-21T09:18:23.037Z,3.50
2023-03-21T09:20:51.809Z,3.30
2023-03-21T09:23:19.856Z,2.80
2023-03-21T09:25:47.876Z,5.13
2023-03-21T09:28:16.482Z,2.83
2023-03-21T09:30:44.614Z,3.13
2023-03-21T09:33:21.080Z,3.40
2023-03-21T09:35:51.727Z,3.60
2023-03-21T09:38:20.704Z,3.40
2023-03-21T09:41:07.123Z,3.70
2023-03-21T09:43:50.131Z,3.87
2023-03-21T09:46:26.522Z,3.50
2023-03-21T09:49:00.133Z,3.10
2023-03-21T09:51:33.569Z,3.70
2023-03-21T09:54:08.742Z,3.60
2023-03-21T09:56:40.617Z,4.17
2023-03-21T09:59:10.065Z,3.50
2023-03-21T10:01:45.500Z,3.70
2023-03-21T10:04:18.862Z,3.67
2023-03-21T10:06:56.975Z,3.70
2023-03-21T10:09:27.151Z,4.60
2023-03-21T10:12:00.151Z,2.90
2023-03-21T10:14:32.929Z,3.93
2023-03-21T10:17:07.235Z,3.23
2023-03-21T10:19:36.702Z,4.47
2023-03-21T10:22:04.762Z,3.30
2023-03-21T10:24:35.483Z,3.80
2023-03-21T10:27:05.436Z,4.27
2023-03-21T10:29:43.257Z,4.10
2023-03-21T10:32:13.035Z,5.20
2023-03-21T10:34:47.424Z,5.00
2023-03-21T10:37:16.793Z,3.37
2023-03-21T10:39:48.211Z,3.87
2023-03-21T10:42:22.200Z,4.07
2023-03-21T10:44:52.489Z,3.80
2023-03-21T10:47:26.697Z,3.37
2023-03-21T10:50:07.178Z,3.90
2023-03-21T10:52:38.736Z,5.00
2023-03-21T10:55:18.566Z,3.80
2023-03-21T10:57:47.998Z,3.83
2023-03-21T11:00:23.069Z,4.23
2023-03-21T11:02:53.140Z,3.43
2023-03-21T11:05:26.829Z,3.80
2023-03-21T11:08:04.753Z,3.20
2023-03-21T11:10:38.156Z,3.50
2023-03-21T11:13:14.792Z,3.87
2023-03-21T11:15:56.634Z,4.27
2023-03-21T11:18:27.374Z,4.57
2023-03-21T11:20:59.609Z,3.50
2023-03-21T11:23:31.537Z,4.50
2023-03-21T11:26:01.892Z,4.90
2023-03-21T11:28:38.894Z,3.57
2023-03-21T11:31:09.362Z,3.53
2023-03-21T11:33:41.140Z,4.80
2023-03-21T11:36:33.731Z,4.63
2023-03-21T11:39:20.128Z,4.10
2023-03-21T11:41:52.583Z,3.63
2023-03-21T11:44:30.930Z,4.00
2023-03-21T11:46:59.413Z,3.60
2023-03-21T11:49:28.641Z,4.00
2023-03-21T11:52:21.628Z,4.37
2023-03-21T11:55:22.011Z,3.73
2023-03-21T11:58:13.926Z,3.77
2023-03-21T12:00:49.851Z,3.50
2023-03-21T12:03:49.397Z,3.40
2023-03-21T12:06:27.625Z,3.80
2023-03-21T12:09:16.581Z,3.40
2023-03-21T12:12:03.244Z,3.30
2023-03-21T12:14:41.467Z,3.93
2023-03-21T12:17:25.856Z,4.03
2023-03-21T12:20:11.066Z,4.20
2023-03-21T12:22:55.124Z,3.90
2023-03-21T12:25:31.483Z,3.80
2023-03-21T12:28:13.871Z,4.70
2023-03-21T12:30:54.410Z,4.53
2023-03-21T12:33:56.256Z,4.43
2023-03-21T12:36:45.488Z,4.40
2023-03-21T12:39:29.505Z,3.63
2023-03-21T12:42:29.219Z,4.00
2023-03-21T12:45:11.575Z,3.63
2023-03-21T12:47:46.711Z,3.77
2023-03-21T12:50:20.114Z,4.70
2023-03-21T12:52:54.075Z,4.03
2023-03-21T12:55:25.617Z,4.50
2023-03-21T12:58:03.731Z,4.03
2023-03-21T13:00:39.510Z,4.60
2023-03-21T13:03:18.219Z,4.30
2023-03-21T13:05:51.565Z,5.57
2023-03-21T13:08:26.272Z,4.67
2023-03-21T13:10:55.957Z,5.30
2023-03-21T13:13:32.929Z,4.30
2023-03-21T13:16:14.058Z,5.67
2023-03-21T13:19:00.346Z,4.07
2023-03-21T13:21:46.068Z,4.00
2023-03-21T13:24:33.983Z,4.73
2023-03-21T13:27:07.412Z,4.80
2023-03-21T13:29:47.449Z,4.63
2023-03-21T13:32:30.678Z,4.80
2023-03-21T13:35:01.981Z,6.00
2023-03-21T13:37:34.091Z,4.77
2023-03-21T13:40:10.565Z,4.50
2023-03-21T13:42:46.108Z,5.40
2023-03-21T13:45:30.116Z,4.27
2023-03-21T13:47:59.903Z,4.60
2023-03-21T13:50:37.504Z,5.10
2023-03-21T13:53:23.971Z,5.40
2023-03-21T13:56:25.615Z,4.40
2023-03-21T13:59:04.823Z,6.73
2023-03-21T14:01:41.622Z,4.90
2023-03-21T14:04:18.764Z,5.80
2023-03-21T14:06:55.197Z,4.47
2023-03-21T14:09:30.069Z,5.20
2023-03-21T14:12:03.820Z,4.97
2023-03-21T14:14:40.043Z,5.63
2023-03-21T14:17:15.382Z,5.67
2023-03-21T14:19:43.598Z,5.67
2023-03-21T14:22:14.502Z,4.50
2023-03-21T14:24:50.703Z,4.80
2023-03-21T14:27:21.374Z,6.30
2023-03-21T14:29:51.348Z,5.70
2023-03-21T14:32:25.323Z,5.87
2023-03-21T14:34:54.041Z,5.80
2023-03-21T14:37:32.326Z,5.97
2023-03-21T14:40:03.136Z,5.77
2023-03-21T14:42:36.277Z,4.90
2023-03-21T14:45:19.576Z,6.17
2023-03-21T14:48:02.225Z,8.20
2023-03-21T14:50:38.526Z,6.20
2023-03-21T14:53:13.009Z,6.20
2023-03-21T14:55:45.504Z,5.70
2023-03-21T14:58:15.242Z,5.20
2023-03-21T15:00:43.535Z,5.30
2023-03-21T15:03:16.124Z,5.93
2023-03-21T15:05:44.193Z,6.57
2023-03-21T15:08:16.791Z,7.20
2023-03-21T15:11:06.198Z,6.70
2023-03-21T15:13:38.987Z,5.80
2023-03-21T15:16:08.786Z,7.80
2023-03-21T15:18:41.389Z,6.20
2023-03-21T15:21:13.228Z,6.13
2023-03-21T15:23:45.196Z,7.70
2023-03-21T15:26:17.532Z,6.47
2023-03-21T15:28:47.320Z,6.00
2023-03-21T15:31:19.814Z,7.17
2023-03-21T15:33:52.076Z,7.20
2023-03-21T15:36:23.289Z,6.40
2023-03-21T15:38:51.655Z,7.23
2023-03-21T15:41:32.163Z,6.70
2023-03-21T15:44:14.422Z,7.10
2023-03-21T15:46:45.212Z,8.07
2023-03-21T15:49:27.206Z,7.57
2023-03-21T15:52:01.632Z,7.20
2023-03-21T15:54:32.747Z,6.70
2023-03-21T15:57:09.420Z,6.77
2023-03-21T15:59:43.080Z,6.23
2023-03-21T16:02:18.825Z,7.33
2023-03-21T16:05:02.250Z,7.03
2023-03-21T16:07:30.563Z,6.60
2023-03-21T16:10:04.811Z,6.80
2023-03-21T16:12:34.123Z,7.17
2023-03-21T16:15:02.152Z,7.50
2023-03-21T16:17:37.440Z,8.03
2023-03-21T16:20:20.231Z,7.97
2023-03-21T16:22:48.623Z,8.07
2023-03-21T16:25:17.100Z,7.37
2023-03-21T16:27:45.826Z,6.87
2023-03-21T16:30:16.677Z,7.17
2023-03-21T16:32:44.782Z,7.50
2023-03-21T16:35:14.619Z,6.90
2023-03-21T16:37:42.749Z,7.60
2023-03-21T16:40:28.960Z,6.30
2023-03-21T16:42:56.986Z,8.00
2023-03-21T16:45:25.545Z,7.30
2023-03-21T16:47:53.720Z,7.63
2023-03-21T16:50:29.453Z,6.80
2023-03-21T16:52:59.356Z,7.20
2023-03-21T16:55:27.712Z,6.60
2023-03-21T16:57:57.281Z,7.03
2023-03-21T17:00:29.091Z,7.80
2023-03-21T17:03:01.966Z,7.67
2023-03-21T17:05:31.931Z,8.00
2023-03-21T17:08:02.312Z,7.93
2023-03-21T17:10:32.987Z,6.80
2023-03-21T17:13:00.982Z,7.47
2023-03-21T17:15:29.190Z,8.67
2023-03-21T17:17:57.201Z,8.80
2023-03-21T17:20:29.268Z,10.23
2023-03-21T17:22:58.984Z,8.07
2023-03-21T17:25:28.324Z,8.50
2023-03-21T17:27:56.579Z,8.40
2023-03-21T17:30:26.882Z,7.83
2023-03-21T17:32:56.075Z,8.07
2023-03-21T17:35:25.494Z,8.60
2023-03-21T17:37:58.237Z,7.13
2023-03-21T17:40:30.343Z,8.40
2023-03-21T17:43:01.224Z,8.50
2023-03-21T17:45:29.658Z,8.20
2023-03-21T17:47:57.669Z,7.77
2023-03-21T17:50:27.813Z,8.70
2023-03-21T17:52:57.283Z,8.27
2023-03-21T17:55:27.041Z,9.37
2023-03-21T17:57:55.109Z,7.80
2023-03-21T18:00:27.020Z,8.97
2023-03-21T18:02:56.208Z,8.63
2023-03-21T18:05:26.454Z,10.00
2023-03-21T18:08:10.149Z,20.50
2023-03-21T18:10:42.461Z,16.63
2023-03-21T18:13:10.910Z,17.00
2023-03-21T18:15:44.112Z,9.63
2023-03-21T18:18:15.990Z,10.87
2023-03-21T18:20:54.003Z,8.30
2023-03-21T18:23:23.031Z,14.00
2023-03-21T18:25:53.451Z,10.60
2023-03-21T18:28:21.850Z,11.43
2023-03-21T18:31:07.846Z,11.03
2023-03-21T18:33:40.136Z,10.43
2023-03-21T18:36:09.660Z,10.13
2023-03-21T18:38:38.708Z,10.20
2023-03-21T18:41:09.746Z,9.90
2023-03-21T18:44:02.764Z,9.77
2023-03-21T18:46:27.194Z,10.37
2023-03-21T18:48:55.630Z,9.93
2023-03-21T18:51:24.073Z,10.83
2023-03-21T18:53:52.347Z,10.43
2023-03-21T18:57:27.446Z,10.83
2023-03-21T18:59:10.009Z,9.23
2023-03-21T19:01:38.701Z,11.80
2023-03-21T19:04:20.958Z,11.33
2023-03-21T19:06:51.204Z,12.10
2023-03-21T19:09:19.269Z,10.93
2023-03-21T19:11:48.664Z,9.20
2023-03-21T19:14:18.870Z,9.37
2023-03-21T19:17:32.708Z,10.87
2023-03-21T19:19:35.796Z,10.67
2023-03-21T19:22:03.860Z,9.37
2023-03-21T19:24:31.934Z,10.80
2023-03-21T19:27:01.372Z,10.80
2023-03-21T19:29:29.432Z,9.37
2023-03-21T19:31:57.503Z,10.70
2023-03-21T19:34:26.535Z,11.23
2023-03-21T19:36:55.011Z,10.27
2023-03-21T19:39:24.012Z,10.50
2023-03-21T19:41:55.481Z,11.17
2023-03-21T19:44:33.350Z,10.80
2023-03-21T19:47:01.366Z,10.47
2023-03-21T19:49:48.850Z,10.73
2023-03-21T19:52:20.411Z,10.90
2023-03-21T19:54:48.546Z,10.03
2023-03-21T19:57:16.903Z,10.57
2023-03-21T19:59:47.402Z,11.23
2023-03-21T20:02:34.388Z,10.13
2023-03-21T20:05:03.499Z,11.37
2023-03-21T20:07:32.701Z,10.77
2023-03-21T20:10:01.124Z,11.53
2023-03-21T20:12:29.302Z,11.10
2023-03-21T20:15:09.554Z,10.07
2023-03-21T20:17:43.895Z,11.23
2023-03-21T20:20:18.378Z,10.63
2023-03-21T20:25:41.157Z,10.03
2023-03-21T20:28:24.623Z,12.57
2023-03-21T20:30:58.415Z,11.00
2023-03-21T20:33:27.026Z,11.23
2023-03-21T20:36:38.669Z,13.00
2023-03-21T20:38:57.026Z,11.83
2023-03-21T20:41:25.030Z,10.50
2023-03-21T20:46:44.037Z,11.47
2023-03-21T20:49:12.507Z,9.93
2023-03-21T20:54:28.582Z,11.20
2023-03-21T20:56:57.364Z,10.73
2023-03-21T20:59:27.938Z,10.63
2023-03-21T21:01:58.315Z,10.53
2023-03-21T21:04:46.973Z,10.90
2023-03-21T21:07:18.585Z,10.70
2023-03-21T21:09:47.160Z,10.97
2023-03-21T21:12:19.020Z,11.10
2023-03-21T21:14:47.778Z,11.80
2023-03-21T21:20:16.285Z,12.50
2023-03-21T21:22:58.638Z,9.60
2023-03-21T21:25:27.631Z,11.60
2023-03-21T21:27:55.894Z,10.93
2023-03-21T21:30:24.075Z,12.90
2023-03-21T21:32:53.890Z,10.43
2023-03-21T21:35:22.377Z,11.30
2023-03-21T21:37:51.126Z,10.23
2023-03-21T21:40:22.870Z,11.00
2023-03-21T21:42:51.194Z,10.70
2023-03-21T21:45:20.059Z,10.80
2023-03-21T21:47:48.240Z,12.20
2023-03-21T21:50:17.751Z,10.43
2023-03-21T21:52:52.411Z,10.70
2023-03-21T21:55:20.629Z,11.20
2023-03-21T21:57:50.272Z,11.27
2023-03-21T22:00:20.534Z,10.30
2023-03-21T22:02:48.619Z,10.60
2023-03-21T22:05:18.991Z,9.93
2023-03-21T22:07:47.870Z,9.97
2023-03-21T22:10:16.483Z,12.10
2023-03-21T22:12:44.470Z,11.87
2023-03-21T22:15:14.127Z,12.60
2023-03-21T22:17:42.725Z,10.17
2023-03-21T22:20:14.425Z,10.80
2023-03-21T22:22:43.984Z,11.37
2023-03-21T22:25:14.918Z,12.73
2023-03-21T22:27:43.405Z,10.80
2023-03-21T22:30:17.256Z,12.70
2023-03-21T22:32:56.493Z,11.93
2023-03-21T22:35:31.152Z,12.10
2023-03-21T22:38:00.730Z,14.17
2023-03-21T22:40:28.783Z,13.53
2023-03-21T22:42:56.839Z,12.30
2023-03-21T22:45:24.841Z,12.33
2023-03-21T22:47:52.819Z,15.80
2023-03-21T22:50:20.831Z,14.83
2023-03-21T22:52:48.839Z,14.10
2023-03-21T22:55:18.448Z,14.00
2023-03-21T22:57:46.441Z,12.83
2023-03-21T23:00:16.150Z,13.57
2023-03-21T23:02:44.133Z,14.93
2023-03-21T23:05:12.653Z,11.87
2023-03-21T23:07:41.086Z,12.80
2023-03-21T23:10:12.049Z,13.23
2023-03-21T23:12:41.618Z,14.80
2023-03-21T23:15:11.428Z,13.40
2023-03-21T23:17:39.539Z,12.20
2023-03-21T23:20:09.757Z,13.63
2023-03-21T23:22:38.151Z,11.83
2023-03-21T23:25:07.862Z,14.20
2023-03-21T23:27:36.855Z,13.83
2023-03-21T23:30:08.255Z,14.00
2023-03-21T23:32:36.316Z,13.30
2023-03-21T23:35:04.492Z,12.80
2023-03-21T23:37:32.478Z,10.60
2023-03-21T23:40:00.438Z,10.67
2023-03-21T23:42:30.483Z,10.80
2023-03-21T23:44:58.528Z,10.60
2023-03-21T23:47:27.919Z,10.83
2023-03-21T23:49:55.904Z,11.63
2023-03-21T23:52:23.917Z,11.00
2023-03-21T23:54:51.961Z,12.20
2023-03-21T23:57:20.192Z,9.73
2023-03-21T23:59:48.129Z,11.30
